Flight Track Log - Related Links

Times and Time Zones

All times are in EDT time to prevent confusion due to time zone crossing. See the AWE1913 flight status page for this flight to view local times or setup timezone preferences in your user account.

Time Position Orientation Groundspeed Altitude Reporting Facility
EDT Latitude Longitude Course Direction KTS MPH feet Rate Location/Type
Sun 07:21:05 AM 42.2036 -83.3556 90° East 138 159 1,400  Level Cleveland Center
Sun 07:22:24 AM 42.1478 -83.3361 166° South 204 235 3,700 1,886 Climbing Cleveland Center
Sun 07:23:00 AM 42.2167 -82.9297 90° East  Level FlightAware Approximate
Sun 07:23:25 AM 42.0925 -83.3031 156° South 248 285 5,800  Level Cleveland Center
Sun 07:24:00 AM 42.2167 -82.7880 90° East  Level FlightAware Approximate
Sun 07:24:20 AM 42.0717 -83.2042 106° East 343 395 8,200  Level Cleveland Center
Sun 07:25:00 AM 42.2167 -82.6462 90° East  Level FlightAware Approximate
Sun 07:25:32 AM 42.1000 -83.0542 76° East 342 394 10,700  Level Cleveland Center
Sun 07:26:00 AM 42.2167 -82.5045 90° East  Level FlightAware Approximate
Sun 07:26:32 AM 42.1278 -82.9267 74° East 342 394 13,000  Level Cleveland Center
Sun 07:27:32 AM 42.1556 -82.7847 75° East 362 417 14,600 1,700 Climbing Cleveland Center
Sun 07:28:32 AM 42.1500 -82.6361 93° East 396 456 16,400 2,000 Climbing Cleveland Center
Sun 07:29:32 AM 42.0919 -82.4969 119° Southeast 388 447 18,600 2,050 Climbing Cleveland Center
Sun 07:30:32 AM 42.0317 -82.3528 119° Southeast 411 473 20,500 1,850 Climbing Cleveland Center
Sun 07:31:32 AM 41.9694 -82.2058 120° Southeast 426 490 22,300 1,600 Climbing Cleveland Center
Sun 07:32:32 AM 41.9106 -82.0731 121° Southeast 454 522 23,700 1,450 Climbing Cleveland Center
Sun 07:33:32 AM 41.8439 -81.9156 120° Southeast 465 535 25,200 1,450 Climbing Cleveland Center
Sun 07:34:32 AM 41.7767 -81.7608 120° Southeast 483 556 26,600 1,350 Climbing Cleveland Center
Sun 07:35:32 AM 41.7072 -81.6011 120° Southeast 490 564 27,900 1,250 Climbing Cleveland Center
Sun 07:36:32 AM 41.6317 -81.4278 120° Southeast 490 564 29,100 1,350 Climbing Cleveland Center
Sun 07:37:32 AM 41.5619 -81.2686 120° Southeast 495 570 30,600 1,400 Climbing Cleveland Center
Sun 07:38:32 AM 41.4833 -81.1181 125° Southeast 495 570 31,900 1,400 Climbing Cleveland Center
Sun 07:39:32 AM 41.3903 -80.9900 134° Southeast 482 555 33,400 1,300 Climbing Cleveland Center
Sun 07:40:32 AM 41.2989 -80.8622 134° Southeast 475 547 34,500 800 Climbing Cleveland Center
Sun 07:41:32 AM 41.2156 -80.7486 134° Southeast 475 547 35,000 250 Climbing Cleveland Center
Sun 07:42:32 AM 41.1178 -80.6106 133° Southeast 469 540 35,000  Level Cleveland Center
Sun 07:43:32 AM 41.0261 -80.4842 134° Southeast 469 540 35,000  Level Cleveland Center
Sun 07:44:32 AM 40.9342 -80.3578 134° Southeast 469 540 35,000  Level Cleveland Center
Sun 07:45:32 AM 40.8525 -80.2400 132° Southeast 476 548 35,000  Level Cleveland Center
Sun 07:46:32 AM 40.8017 -80.0428 109° East 485 558 35,000  Level Cleveland Center
Sun 07:47:32 AM 40.7611 -79.8622 106° East 500 575 35,000  Level Cleveland Center
Sun 07:48:32 AM 40.7203 -79.6819 107° East 505 581 35,000  Level Cleveland Center
Sun 07:49:32 AM 40.6792 -79.4961 106° East 515 593 35,000  Level Cleveland Center
Sun 07:50:32 AM 40.6375 -79.3136 107° East 515 593 35,000  Level Cleveland Center
Sun 07:51:32 AM 40.5936 -79.1311 108° East 515 593 35,000 -50 Level Cleveland Center
Sun 07:52:32 AM 40.5517 -78.9489 107° East 520 598 34,900 -850 Descending Cleveland Center
Sun 07:53:32 AM 40.5258 -78.7611 100° East 515 593 33,300 -1,950 Descending Cleveland Center
Sun 07:54:32 AM 40.5039 -78.5761 99° East 515 593 31,000 -2,523 Descending Cleveland Center
Sun 07:56:28 AM 40.4625 -78.2161 98° East 499 574 25,900 -2,045 Descending New York Center
Sun 07:57:28 AM 40.4400 -78.0419 100° East 492 566 25,000 -446 Descending New York Center
Sun 07:58:29 AM 40.4131 -77.8644 101° East 487 560 25,000 -397 Level New York Center
Sun 07:59:29 AM 40.3900 -77.6903 100° East 487 560 24,200 -1,091 Descending New York Center
Sun 08:00:30 AM 40.3708 -77.5575 101° East 482 555 22,800 -1,765 Descending New York Center
Sun 08:01:28 AM 40.3419 -77.3642 101° East 466 536 20,700 -1,983 Descending New York Center
Sun 08:02:28 AM 40.3150 -77.2117 103° East 444 511 18,900 -1,350 Descending New York Center
Sun 08:03:28 AM 40.2919 -77.0600 101° East 426 490 18,000 -446 Descending New York Center
Sun 08:04:29 AM 40.2708 -76.9056 100° East 421 484 18,000 -50 Level New York Center
Sun 08:05:29 AM 40.2472 -76.7594 102° East 421 484 17,900 -605 Descending New York Center
Sun 08:06:28 AM 40.2233 -76.6103 102° East 421 484 16,800 -1,300 Descending New York Center
Sun 08:07:29 AM 40.2028 -76.4781 101° East 421 484 15,300 -1,389 Descending New York Center
Sun 08:08:16 AM 40.1833 -76.3522 101° East 394 453 14,300 -1,522 Descending FAA TRACON SMA TRACON (SMA)
Sun 08:08:36 AM 40.1750 -76.3133 106° East 359 413 13,600 -2,400 Descending FAA TRACON SMA TRACON (SMA)
Sun 08:08:56 AM 40.1686 -76.2669 100° East 349 402 12,700 -2,400 Descending FAA TRACON SMA TRACON (SMA)
Sun 08:09:16 AM 40.1614 -76.2275 103° East 343 395 12,000 -2,100 Descending FAA TRACON SMA TRACON (SMA)
Sun 08:09:36 AM 40.1556 -76.1903 102° East 342 394 11,300 -2,100 Descending FAA TRACON SMA TRACON (SMA)
Sun 08:09:56 AM 40.1489 -76.1456 101° East 338 389 10,600 -1,350 Descending FAA TRACON SMA TRACON (SMA)
Sun 08:10:16 AM 40.1419 -76.1086 104° East 333 383 10,400 -750 Descending FAA TRACON SMA TRACON (SMA)
Sun 08:10:36 AM 40.1361 -76.0742 102° East 325 374 10,100 -1,200 Descending FAA TRACON SMA TRACON (SMA)
Sun 08:10:56 AM 40.1306 -76.0406 102° East 315 362 9,600 -1,500 Descending FAA TRACON SMA TRACON (SMA)
Sun 08:11:16 AM 40.1244 -76.0011 101° East 299 344 9,100 -1,500 Descending FAA TRACON SMA TRACON (SMA)
Sun 08:11:36 AM 40.1183 -75.9675 103° East 300 345 8,600 -1,350 Descending FAA TRACON SMA TRACON (SMA)
Sun 08:11:56 AM 40.1136 -75.9347 101° East 297 342 8,200 -900 Descending FAA TRACON SMA TRACON (SMA)
Sun 08:12:16 AM 40.1061 -75.8942 104° East 300 345 8,000 -300 Descending FAA TRACON SMA TRACON (SMA)
Sun 08:12:36 AM 40.1008 -75.8603 101° East 301 346 8,000  Level FAA TRACON SMA TRACON (SMA)
Sun 08:12:56 AM 40.0953 -75.8281 103° East 302 348 8,000  Level FAA TRACON SMA TRACON (SMA)
Sun 08:13:16 AM 40.0889 -75.7867 101° East 302 348 8,000  Level FAA TRACON SMA TRACON (SMA)
Sun 08:13:36 AM 40.0836 -75.7550 102° East 301 346 8,000 -300 Level FAA TRACON SMA TRACON (SMA)
Sun 08:13:56 AM 40.0806 -75.7200 96° East 303 349 7,800 -1,050 Descending FAA TRACON SMA TRACON (SMA)
Sun 08:14:16 AM 40.0794 -75.6769 92° East 298 343 7,300 -1,500 Descending FAA TRACON SMA TRACON (SMA)
Sun 08:14:36 AM 40.0772 -75.6458 95° East 294 338 6,800 -1,500 Descending FAA TRACON SMA TRACON (SMA)
Sun 08:14:56 AM 40.0758 -75.6133 93° East 294 338 6,300 -1,200 Descending FAA TRACON SMA TRACON (SMA)
Sun 08:15:16 AM 40.0747 -75.5731 92° East 294 338 6,000 -450 Descending FAA TRACON SMA TRACON (SMA)
Sun 08:15:36 AM 40.0722 -75.5386 95° East 297 342 6,000  Level FAA TRACON SMA TRACON (SMA)
Sun 08:15:56 AM 40.0706 -75.5069 94° East 298 343 6,000  Level FAA TRACON SMA TRACON (SMA)
Sun 08:16:16 AM 40.0683 -75.4636 94° East 299 344 6,000  Level FAA TRACON SMA TRACON (SMA)
Sun 08:16:36 AM 40.0672 -75.4308 93° East 295 339 6,000  Level FAA TRACON SMA TRACON (SMA)
Sun 08:16:56 AM 40.0656 -75.3981 94° East 294 338 6,000  Level FAA TRACON SMA TRACON (SMA)
Sun 08:17:16 AM 40.0642 -75.3581 93° East 294 338 6,000  Level FAA TRACON SMA TRACON (SMA)
Sun 08:17:36 AM 40.0617 -75.3244 96° East 293 337 6,000  Level FAA TRACON SMA TRACON (SMA)
Sun 08:17:56 AM 40.0603 -75.2922 93° East 293 337 6,000  Level FAA TRACON SMA TRACON (SMA)
Sun 08:18:16 AM 40.0581 -75.2514 94° East 290 334 6,000 -150 Level FAA TRACON SMA TRACON (SMA)
Sun 08:18:36 AM 40.0542 -75.2231 100° East 250 288 5,900  Descending FAA TRACON SMA TRACON (SMA)
Sun 08:18:56 AM 40.0422 -75.2025 127° Southeast 217 250 6,000 150 Climbing FAA TRACON SMA TRACON (SMA)
Sun 08:19:16 AM 40.0219 -75.1933 161° South 205 236 6,000  Level FAA TRACON SMA TRACON (SMA)
Sun 08:19:36 AM 40.0053 -75.1878 166° South 204 235 6,000  Level FAA TRACON SMA TRACON (SMA)
Sun 08:19:56 AM 39.9883 -75.1783 157° South 199 229 6,000  Level FAA TRACON SMA TRACON (SMA)
Sun 08:20:16 AM 39.9781 -75.1581 123° Southeast 225 259 6,000  Level FAA TRACON SMA TRACON (SMA)
Sun 08:20:36 AM 39.9814 -75.1272 82° East 228 262 6,000  Level FAA TRACON SMA TRACON (SMA)
Sun 08:20:56 AM 39.9875 -75.1031 72° East 227 261 6,000 -150 Level FAA TRACON SMA TRACON (SMA)
Sun 08:21:16 AM 39.9936 -75.0739 75° East 229 264 5,900 -300 Descending FAA TRACON SMA TRACON (SMA)
Sun 08:21:36 AM 39.9997 -75.0494 72° East 227 261 5,800 -750 Descending FAA TRACON SMA TRACON (SMA)
Sun 08:21:56 AM 40.0047 -75.0239 76° East 226 260 5,400 -1,200 Descending FAA TRACON SMA TRACON (SMA)
Sun 08:22:16 AM 40.0114 -74.9936 74° East 225 259 5,000 -600 Descending FAA TRACON SMA TRACON (SMA)
Sun 08:22:36 AM 40.0167 -74.9694 74° East 225 259 5,000  Level FAA TRACON SMA TRACON (SMA)
Sun 08:22:56 AM 40.0222 -74.9467 72° East 224 258 5,000  Level FAA TRACON SMA TRACON (SMA)
Sun 08:23:16 AM 40.0292 -74.9169 73° East 223 257 5,000  Level FAA TRACON SMA TRACON (SMA)
Sun 08:23:36 AM 40.0339 -74.8917 76° East 223 257 5,000  Level FAA TRACON SMA TRACON (SMA)
Sun 08:23:56 AM 40.0314 -74.8675 98° East 221 254 5,000  Level FAA TRACON SMA TRACON (SMA)
Sun 08:24:16 AM 40.0150 -74.8511 143° Southeast 178 205 5,000  Level FAA TRACON SMA TRACON (SMA)
Sun 08:24:36 AM 39.9994 -74.8439 160° South 195 224 5,000 -300 Level FAA TRACON SMA TRACON (SMA)
Sun 08:24:56 AM 39.9833 -74.8447 182° South 177 204 4,800 -750 Descending FAA TRACON SMA TRACON (SMA)
Sun 08:25:16 AM 39.9731 -74.8581 225° Southwest 172 198 4,500 -900 Descending FAA TRACON SMA TRACON (SMA)
Sun 08:25:36 AM 39.9611 -74.8747 227° Southwest 163 188 4,200 -750 Descending FAA TRACON SMA TRACON (SMA)
Sun 08:25:56 AM 39.9514 -74.8886 228° Southwest 169 194 4,000 -300 Descending FAA TRACON SMA TRACON (SMA)
Sun 08:26:16 AM 39.9419 -74.9028 229° Southwest 168 193 4,000 -150 Level FAA TRACON SMA TRACON (SMA)
Sun 08:26:36 AM 39.9344 -74.9253 247° West 174 200 3,900 -150 Descending FAA TRACON SMA TRACON (SMA)
Sun 08:26:56 AM 39.9308 -74.9433 255° West 181 208 3,900 150 Level FAA TRACON SMA TRACON (SMA)
Sun 08:27:16 AM 39.9269 -74.9625 255° West 174 200 4,000 -150 Climbing FAA TRACON SMA TRACON (SMA)
Sun 08:27:36 AM 39.9219 -74.9858 254° West 173 199 3,800 -600 Descending FAA TRACON SMA TRACON (SMA)
Sun 08:27:56 AM 39.9183 -75.0042 256° West 174 200 3,600 -900 Descending FAA TRACON SMA TRACON (SMA)
Sun 08:28:16 AM 39.9144 -75.0275 258° West 171 197 3,200 -1,200 Descending FAA TRACON SMA TRACON (SMA)

Login

Don't have an account? Register now (free) for customized features, flight alerts, and more!